createdAt,value
2022-09-15T00:01:14.834Z,100945.53
2022-09-15T00:03:43.046Z,100944.38
2022-09-15T00:06:11.272Z,100944.06
2022-09-15T00:08:39.691Z,100943.22
2022-09-15T00:11:12.195Z,100950.94
2022-09-15T00:13:41.414Z,100956.34
2022-09-15T00:16:14.644Z,100955.19
2022-09-15T00:18:46.023Z,100960.72
2022-09-15T00:21:15.228Z,100951.94
2022-09-15T00:23:43.461Z,100955.50
2022-09-15T00:26:13.909Z,100950.84
2022-09-15T00:28:42.315Z,100960.66
2022-09-15T00:31:12.538Z,100958.41
2022-09-15T00:33:41.089Z,100963.81
2022-09-15T00:36:14.206Z,100963.03
2022-09-15T00:38:42.967Z,100970.44
2022-09-15T00:41:13.392Z,100969.84
2022-09-15T00:43:48.579Z,100973.41
2022-09-15T00:46:19.034Z,100968.19
2022-09-15T00:48:52.395Z,100969.84
2022-09-15T00:51:28.215Z,100972.50
2022-09-15T00:53:58.122Z,100988.81
2022-09-15T00:56:27.513Z,100981.53
2022-09-15T00:59:01.162Z,100983.69
2022-09-15T01:01:31.678Z,100983.44
2022-09-15T01:04:00.240Z,100982.44
2022-09-15T01:06:34.343Z,100986.34
2022-09-15T01:09:08.610Z,100982.03
2022-09-15T01:11:36.818Z,100977.78
2022-09-15T01:14:04.892Z,100980.88
2022-09-15T01:20:11.531Z,100977.94
2022-09-15T01:22:53.994Z,100985.66
2022-09-15T01:25:40.289Z,100983.66
2022-09-15T01:28:30.583Z,100992.72
2022-09-15T01:31:03.757Z,100997.91
2022-09-15T01:33:36.859Z,100991.03
2022-09-15T01:36:11.566Z,100996.41
2022-09-15T01:38:48.558Z,100994.31
2022-09-15T01:41:19.438Z,100991.00
2022-09-15T01:43:54.572Z,100990.28
2022-09-15T01:46:27.671Z,100997.88
2022-09-15T01:48:58.084Z,100999.38
2022-09-15T01:51:28.133Z,100986.25
2022-09-15T01:53:57.931Z,100998.78
2022-09-15T01:56:26.275Z,100995.22
2022-09-15T01:58:54.423Z,100991.56
2022-09-15T02:01:31.774Z,100981.94
2022-09-15T02:04:06.234Z,100983.81
2022-09-15T02:06:37.389Z,100982.66
2022-09-15T02:09:12.693Z,100980.75
2022-09-15T02:11:52.260Z,100988.94
2022-09-15T02:14:33.856Z,100988.84
2022-09-15T02:17:05.524Z,100988.50
2022-09-15T02:19:36.961Z,100978.41
2022-09-15T02:22:11.187Z,100990.41
2022-09-15T02:24:43.303Z,100979.38
2022-09-15T02:27:16.176Z,100989.00
2022-09-15T02:29:46.253Z,100991.47
2022-09-15T02:32:20.001Z,100987.91
2022-09-15T02:34:52.515Z,100989.00
2022-09-15T02:37:23.942Z,100987.31
2022-09-15T02:39:58.031Z,100987.31
2022-09-15T02:42:26.993Z,100987.31
2022-09-15T02:44:55.151Z,100984.03
2022-09-15T02:47:26.360Z,100985.66
2022-09-15T02:49:54.558Z,100978.28
2022-09-15T02:52:22.655Z,100984.84
2022-09-15T02:54:51.102Z,100979.97
2022-09-15T02:57:19.867Z,100982.94
2022-09-15T03:00:05.373Z,100983.13
2022-09-15T03:02:35.212Z,100982.31
2022-09-15T03:05:03.337Z,100976.84
2022-09-15T03:07:32.046Z,100981.84
2022-09-15T03:10:00.398Z,100979.84
2022-09-15T03:12:28.323Z,100986.13
2022-09-15T03:14:56.289Z,100982.31
2022-09-15T03:17:24.410Z,100981.50
2022-09-15T03:19:53.866Z,100977.34
2022-09-15T03:22:22.247Z,100978.97
2022-09-15T03:24:50.195Z,100985.31
2022-09-15T03:27:18.282Z,100984.13
2022-09-15T03:29:46.628Z,100983.28
2022-09-15T03:32:15.456Z,100983.28
2022-09-15T03:34:43.407Z,100988.25
2022-09-15T03:37:12.883Z,100995.88
2022-09-15T03:39:40.856Z,100998.03
2022-09-15T03:42:09.230Z,100996.34
2022-09-15T03:44:37.298Z,100991.97
2022-09-15T03:47:05.522Z,100996.34
2022-09-15T03:49:33.536Z,100993.88
2022-09-15T03:52:01.640Z,100994.69
2022-09-15T03:54:31.116Z,100996.94
2022-09-15T03:56:59.060Z,100998.25
2022-09-15T03:59:27.330Z,100996.84
2022-09-15T04:01:55.360Z,100994.09
2022-09-15T04:04:23.402Z,100995.03
2022-09-15T04:06:51.369Z,100995.75
2022-09-15T04:09:20.434Z,101000.41
2022-09-15T04:11:49.904Z,100998.97
2022-09-15T04:14:17.879Z,100997.66
2022-09-15T04:16:45.835Z,100997.66
2022-09-15T04:19:14.424Z,100994.34
2022-09-15T04:21:42.440Z,100996.84
2022-09-15T04:24:10.405Z,100995.19
2022-09-15T04:26:38.429Z,100991.38
2022-09-15T04:29:13.585Z,100994.44
2022-09-15T04:31:41.644Z,100995.75
2022-09-15T04:34:10.227Z,100991.88
2022-09-15T04:36:38.399Z,100992.09
2022-09-15T04:39:07.192Z,101001.13
2022-09-15T04:41:35.261Z,101000.06
2022-09-15T04:44:03.692Z,100998.19
2022-09-15T04:46:33.179Z,101000.09
2022-09-15T04:49:01.340Z,101005.88
2022-09-15T04:51:29.445Z,101003.97
2022-09-15T04:53:57.408Z,101011.00
2022-09-15T04:56:27.409Z,101001.88
2022-09-15T04:59:01.094Z,101002.72
2022-09-15T05:01:35.096Z,101004.34
2022-09-15T05:04:05.093Z,100997.47
2022-09-15T05:06:34.852Z,101000.19
2022-09-15T05:09:09.687Z,101005.19
2022-09-15T05:11:38.700Z,101011.94
2022-09-15T05:14:08.099Z,101007.78
2022-09-15T05:16:37.645Z,101006.16
2022-09-15T05:19:05.727Z,101008.75
2022-09-15T05:21:34.313Z,101008.75
2022-09-15T05:24:02.657Z,101008.75
2022-09-15T05:26:31.141Z,101016.34
2022-09-15T05:28:59.338Z,101013.16
2022-09-15T05:31:30.653Z,101026.22
2022-09-15T05:34:02.385Z,101023.00
2022-09-15T05:36:30.866Z,101030.13
2022-09-15T05:38:59.720Z,101022.19
2022-09-15T05:41:29.100Z,101040.00
2022-09-15T05:43:58.915Z,101032.28
2022-09-15T05:46:29.293Z,101036.66
2022-09-15T05:49:00.180Z,101035.59
2022-09-15T05:51:30.178Z,101038.91
2022-09-15T05:53:58.246Z,101038.09
2022-09-15T05:56:26.180Z,101040.13
2022-09-15T05:58:54.282Z,101049.63
2022-09-15T06:01:23.920Z,101056.94
2022-09-15T06:03:52.842Z,101063.50
2022-09-15T06:06:23.279Z,101065.75
2022-09-15T06:08:58.040Z,101068.25
2022-09-15T06:11:28.321Z,101070.72
2022-09-15T06:13:56.742Z,101072.41
2022-09-15T06:16:26.689Z,101075.72
2022-09-15T06:18:55.463Z,101075.72
2022-09-15T06:21:27.581Z,101072.53
2022-09-15T06:23:57.191Z,101070.97
2022-09-15T06:26:26.044Z,101076.44
2022-09-15T06:28:56.261Z,101093.16
2022-09-15T06:31:25.338Z,101080.09
2022-09-15T06:33:57.689Z,101087.00
2022-09-15T06:36:29.553Z,101085.09
2022-09-15T06:38:57.810Z,101084.59
2022-09-15T06:41:26.384Z,101087.09
2022-09-15T06:43:54.405Z,101088.28
2022-09-15T06:46:25.158Z,101100.44
2022-09-15T06:48:53.765Z,101089.13
2022-09-15T06:51:23.417Z,101102.47
2022-09-15T06:53:54.478Z,101104.94
2022-09-15T06:56:24.465Z,101107.06
2022-09-15T06:58:52.872Z,101111.47
2022-09-15T07:01:23.172Z,101110.41
2022-09-15T07:03:52.127Z,101117.75
2022-09-15T07:06:20.498Z,101110.03
2022-09-15T07:08:49.899Z,101115.59
2022-09-15T07:11:19.375Z,101110.03
2022-09-15T07:13:49.208Z,101118.44
2022-09-15T07:16:18.981Z,101120.97
2022-09-15T07:18:47.218Z,101115.34
2022-09-15T07:21:17.462Z,101120.31
2022-09-15T07:23:45.917Z,101116.88
2022-09-15T07:26:16.382Z,101112.22
2022-09-15T07:28:49.889Z,101123.16
2022-09-15T07:31:20.648Z,101123.03
2022-09-15T07:33:48.997Z,101131.59
2022-09-15T07:36:17.954Z,101127.56
2022-09-15T07:38:47.973Z,101131.59
2022-09-15T07:41:21.879Z,101128.50
2022-09-15T07:43:52.825Z,101129.44
2022-09-15T07:46:22.905Z,101128.50
2022-09-15T07:48:53.318Z,101141.94
2022-09-15T07:51:21.537Z,101139.78
2022-09-15T07:53:51.099Z,101143.94
2022-09-15T07:56:19.785Z,101142.63
2022-09-15T07:58:49.137Z,101135.38
2022-09-15T08:01:20.286Z,101145.84
2022-09-15T08:03:50.448Z,101136.81
2022-09-15T08:06:19.906Z,101139.78
2022-09-15T08:08:47.980Z,101146.56
2022-09-15T08:11:19.025Z,101143.59
2022-09-15T08:13:47.940Z,101140.63
2022-09-15T08:16:19.359Z,101148.66
2022-09-15T08:18:48.265Z,101142.00
2022-09-15T08:21:20.175Z,101143.91
2022-09-15T08:23:52.541Z,101149.16
2022-09-15T08:26:20.661Z,101149.47
2022-09-15T08:28:48.853Z,101155.06
2022-09-15T08:31:18.908Z,101156.72
2022-09-15T08:33:49.679Z,101156.81
2022-09-15T08:36:17.751Z,101168.75
2022-09-15T08:38:47.276Z,101169.72
2022-09-15T08:41:20.060Z,101171.56
2022-09-15T08:43:56.833Z,101162.63
2022-09-15T08:46:31.367Z,101176.69
2022-09-15T08:49:06.397Z,101175.38
2022-09-15T08:51:41.876Z,101174.16
2022-09-15T08:54:17.415Z,101176.06
2022-09-15T08:56:45.813Z,101167.75
2022-09-15T08:59:16.560Z,101172.34
2022-09-15T09:01:58.588Z,101169.81
2022-09-15T09:04:50.113Z,101172.66
2022-09-15T09:07:33.074Z,101175.84
2022-09-15T09:10:11.089Z,101178.19
2022-09-15T09:12:57.361Z,101177.34
2022-09-15T09:15:38.327Z,101181.84
2022-09-15T09:18:36.348Z,101168.25
2022-09-15T09:21:16.936Z,101177.94
2022-09-15T09:23:51.432Z,101177.69
2022-09-15T09:26:20.516Z,101168.75
2022-09-15T09:28:55.324Z,101182.53
2022-09-15T09:31:25.956Z,101169.44
2022-09-15T09:34:00.019Z,101169.44
2022-09-15T09:36:29.606Z,101171.56
2022-09-15T09:38:58.607Z,101170.41
2022-09-15T09:41:35.638Z,101170.97
2022-09-15T09:44:05.535Z,101181.22
2022-09-15T09:46:34.518Z,101188.50
2022-09-15T09:49:07.630Z,101177.56
2022-09-15T09:51:39.851Z,101190.56
2022-09-15T09:54:20.582Z,101189.44
2022-09-15T09:56:49.551Z,101193.41
2022-09-15T09:59:35.835Z,101191.75
2022-09-15T10:02:19.101Z,101187.47
2022-09-15T10:04:49.014Z,101189.09
2022-09-15T10:07:21.171Z,101192.03
2022-09-15T10:09:52.965Z,101186.97
2022-09-15T10:12:24.903Z,101195.91
2022-09-15T10:14:56.620Z,101193.84
2022-09-15T10:17:27.351Z,101191.75
2022-09-15T10:19:57.549Z,101190.09
2022-09-15T10:22:31.839Z,101190.13
2022-09-15T10:25:01.521Z,101192.72
2022-09-15T10:27:32.425Z,101191.16
2022-09-15T10:30:01.253Z,101193.31
2022-09-15T10:32:31.038Z,101189.66
2022-09-15T10:35:11.599Z,101192.25
2022-09-15T10:37:57.485Z,101182.78
2022-09-15T10:40:35.849Z,101186.19
2022-09-15T10:43:22.375Z,101184.66
2022-09-15T10:45:54.985Z,101182.22
2022-09-15T10:48:43.838Z,101180.59
2022-09-15T10:51:27.953Z,101178.47
2022-09-15T10:54:17.602Z,101180.28
2022-09-15T10:56:50.043Z,101179.22
2022-09-15T10:59:44.326Z,101183.66
2022-09-15T11:02:38.782Z,101193.38
2022-09-15T11:05:26.278Z,101190.78
2022-09-15T11:08:07.476Z,101195.38
2022-09-15T11:10:46.608Z,101195.81
2022-09-15T11:13:22.358Z,101195.38
2022-09-15T11:16:00.766Z,101192.19
2022-09-15T11:18:51.379Z,101190.03
2022-09-15T11:21:27.740Z,101194.75
2022-09-15T11:24:06.695Z,101191.16
2022-09-15T11:26:41.338Z,101192.13
2022-09-15T11:29:19.740Z,101199.84
2022-09-15T11:31:51.401Z,101192.66
2022-09-15T11:34:25.210Z,101192.59
2022-09-15T11:37:04.145Z,101194.69
2022-09-15T11:39:40.674Z,101199.66
2022-09-15T11:42:14.240Z,101198.19
2022-09-15T11:44:45.636Z,101204.03
2022-09-15T11:47:27.923Z,101196.31
2022-09-15T11:49:59.141Z,101205.97
2022-09-15T11:52:44.182Z,101199.97
2022-09-15T11:55:25.338Z,101201.75
2022-09-15T11:58:04.504Z,101197.09
2022-09-15T12:00:43.414Z,101202.91
2022-09-15T12:03:25.466Z,101196.69
2022-09-15T12:06:51.473Z,101195.47
2022-09-15T12:09:35.367Z,101201.38
2022-09-15T12:12:17.506Z,101189.38
2022-09-15T12:14:50.647Z,101192.25
2022-09-15T12:17:26.221Z,101193.88
2022-09-15T12:20:01.844Z,101196.19
2022-09-15T12:22:37.873Z,101190.59
2022-09-15T12:25:15.709Z,101201.78
2022-09-15T12:27:44.096Z,101197.22
2022-09-15T12:30:41.230Z,101190.34
2022-09-15T12:33:42.437Z,101188.59
2022-09-15T12:36:39.985Z,101197.06
2022-09-15T12:39:23.892Z,101204.44
2022-09-15T12:41:54.634Z,101196.91
2022-09-15T12:44:32.069Z,101195.09
2022-09-15T12:47:03.245Z,101205.31
2022-09-15T12:49:35.149Z,101191.13
2022-09-15T12:52:08.061Z,101210.69
2022-09-15T12:54:39.455Z,101209.78
2022-09-15T12:57:09.277Z,101212.66
2022-09-15T12:59:37.659Z,101208.25
2022-09-15T13:02:45.119Z,101209.41
2022-09-15T13:05:14.615Z,101201.81
2022-09-15T13:07:57.817Z,101196.94
2022-09-15T13:10:33.123Z,101203.97
2022-09-15T13:13:11.719Z,101201.34
2022-09-15T13:15:46.307Z,101203.88
2022-09-15T13:18:18.068Z,101202.00
2022-09-15T13:20:54.963Z,101198.69
2022-09-15T13:23:27.396Z,101196.50
2022-09-15T13:26:01.121Z,101203.25
2022-09-15T13:28:30.006Z,101197.56
2022-09-15T13:31:13.611Z,101201.41
2022-09-15T13:40:09.639Z,101206.44
2022-09-15T13:42:57.316Z,101212.19
2022-09-15T13:45:42.607Z,101195.28
2022-09-15T13:48:31.066Z,101203.03
2022-09-15T13:51:03.147Z,101203.22
2022-09-15T13:53:48.071Z,101198.50
2022-09-15T13:56:22.902Z,101201.66
2022-09-15T13:58:54.966Z,101201.66
2022-09-15T14:01:26.292Z,101201.03
2022-09-15T14:03:59.675Z,101195.16
2022-09-15T14:06:36.111Z,101191.56
2022-09-15T14:09:08.918Z,101190.28
2022-09-15T14:11:38.702Z,101183.03
2022-09-15T14:14:22.172Z,101188.22
2022-09-15T14:16:51.131Z,101183.41
2022-09-15T14:19:33.885Z,101176.44
2022-09-15T14:22:19.273Z,101180.94
2022-09-15T14:24:48.038Z,101180.78
2022-09-15T14:27:22.072Z,101172.53
2022-09-15T14:29:55.260Z,101171.72
2022-09-15T14:32:23.418Z,101179.38
2022-09-15T14:34:51.950Z,101183.56
2022-09-15T14:37:27.566Z,101186.72
2022-09-15T14:39:57.513Z,101189.34
2022-09-15T14:42:30.679Z,101182.78
2022-09-15T14:48:02.172Z,101183.59
2022-09-15T14:50:33.145Z,101185.38
2022-09-15T14:53:07.851Z,101183.41
2022-09-15T14:55:42.273Z,101185.09
2022-09-15T14:58:19.640Z,101181.59
2022-09-15T15:00:55.699Z,101179.44
2022-09-15T15:03:32.695Z,101180.66
2022-09-15T15:06:25.376Z,101179.13
2022-09-15T15:09:03.080Z,101181.97
2022-09-15T15:11:32.986Z,101188.63
2022-09-15T15:14:01.648Z,101184.78
2022-09-15T15:16:32.917Z,101190.78
2022-09-15T15:19:01.643Z,101180.25
2022-09-15T15:21:37.908Z,101199.53
2022-09-15T15:24:18.896Z,101192.41
2022-09-15T15:26:49.050Z,101192.84
2022-09-15T15:29:40.771Z,101199.91
2022-09-15T15:32:13.508Z,101196.50
2022-09-15T15:34:49.598Z,101201.69
2022-09-15T15:37:26.377Z,101201.13
2022-09-15T15:39:57.052Z,101195.72
2022-09-15T15:42:26.264Z,101194.41
2022-09-15T15:45:20.785Z,101197.63
2022-09-15T15:47:49.260Z,101201.47
2022-09-15T15:50:21.185Z,101211.56
2022-09-15T15:52:55.894Z,101208.03
2022-09-15T15:55:31.718Z,101208.56
2022-09-15T15:58:00.231Z,101218.28
2022-09-15T16:00:34.115Z,101217.69
2022-09-15T16:03:02.471Z,101227.81
2022-09-15T16:05:31.050Z,101228.34
2022-09-15T16:08:03.329Z,101231.91
2022-09-15T16:10:39.967Z,101236.59
2022-09-15T16:13:08.690Z,101233.91
2022-09-15T16:15:36.865Z,101228.81
2022-09-15T16:18:05.384Z,101238.97
2022-09-15T16:20:33.591Z,101239.19
2022-09-15T16:23:01.850Z,101242.63
2022-09-15T16:25:41.905Z,101241.28
2022-09-15T16:28:11.217Z,101242.63
2022-09-15T16:30:39.840Z,101241.00
2022-09-15T16:33:07.858Z,101244.19
2022-09-15T16:35:44.642Z,101243.19
2022-09-15T16:38:26.228Z,101241.22
2022-09-15T16:40:56.702Z,101246.19
2022-09-15T16:43:25.090Z,101242.31
2022-09-15T16:45:54.103Z,101242.25
2022-09-15T16:48:24.835Z,101243.25
2022-09-15T16:51:20.380Z,101245.44
2022-09-15T16:53:41.699Z,101244.34
2022-09-15T16:56:13.173Z,101246.75
2022-09-15T16:58:41.681Z,101242.63
2022-09-15T17:01:18.801Z,101245.75
2022-09-15T17:03:47.271Z,101248.72
2022-09-15T17:06:17.722Z,101256.91
2022-09-15T17:08:46.344Z,101259.66
2022-09-15T17:11:17.741Z,101263.47
2022-09-15T17:13:47.160Z,101254.94
2022-09-15T17:16:19.329Z,101260.56
2022-09-15T17:18:48.085Z,101261.16
2022-09-15T17:21:18.896Z,101259.50
2022-09-15T17:23:47.931Z,101262.56
2022-09-15T17:26:20.764Z,101265.50
2022-09-15T17:28:49.278Z,101262.09
2022-09-15T17:31:18.902Z,101261.53
2022-09-15T17:33:48.178Z,101256.66
2022-09-15T17:36:16.688Z,101268.59
2022-09-15T17:38:47.884Z,101267.84
2022-09-15T17:41:19.267Z,101270.44
2022-09-15T17:43:47.823Z,101269.63
2022-09-15T17:46:16.117Z,101279.22
2022-09-15T17:48:44.251Z,101279.00
2022-09-15T17:51:16.293Z,101282.81
2022-09-15T17:53:45.202Z,101282.31
2022-09-15T17:56:13.587Z,101276.47
2022-09-15T17:58:43.262Z,101288.22
2022-09-15T18:01:14.496Z,101284.16
2022-09-15T18:03:44.689Z,101280.09
2022-09-15T18:06:13.122Z,101275.94
2022-09-15T18:08:41.372Z,101272.91
2022-09-15T18:11:11.616Z,101285.41
2022-09-15T18:13:39.680Z,101281.72
2022-09-15T18:16:13.906Z,101277.47
2022-09-15T18:18:43.008Z,101279.63
2022-09-15T18:21:23.557Z,101278.22
2022-09-15T18:23:51.615Z,101279.53
2022-09-15T18:26:23.874Z,101285.72
2022-09-15T18:28:56.496Z,101282.06
2022-09-15T18:31:26.711Z,101288.34
2022-09-15T18:33:54.953Z,101288.13
2022-09-15T18:36:23.223Z,101278.50
2022-09-15T18:38:51.276Z,101287.78
2022-09-15T18:41:19.567Z,101292.34
2022-09-15T18:43:49.156Z,101299.00
2022-09-15T18:46:17.780Z,101297.59
2022-09-15T18:48:48.076Z,101301.47
2022-09-15T18:51:24.026Z,101293.53
2022-09-15T18:53:54.431Z,101301.97
2022-09-15T18:56:22.956Z,101310.28
2022-09-15T18:58:53.763Z,101309.38
2022-09-15T19:01:23.448Z,101300.25
2022-09-15T19:03:53.149Z,101309.28
2022-09-15T19:06:23.320Z,101307.97
2022-09-15T19:08:52.232Z,101322.25
2022-09-15T19:11:20.480Z,101321.06
2022-09-15T19:13:48.729Z,101330.72
2022-09-15T19:16:18.255Z,101331.53
2022-09-15T19:18:50.837Z,101336.69
2022-09-15T19:21:23.934Z,101330.06
2022-09-15T19:23:57.211Z,101336.88
2022-09-15T19:26:28.848Z,101347.00
2022-09-15T19:28:57.692Z,101338.69
2022-09-15T19:31:26.855Z,101344.91
2022-09-15T19:33:55.116Z,101351.94
2022-09-15T19:36:28.454Z,101349.78
2022-09-15T19:38:57.497Z,101358.00
2022-09-15T19:41:25.566Z,101362.31
2022-09-15T19:43:54.017Z,101360.09
2022-09-15T19:46:24.230Z,101356.38
2022-09-15T19:48:52.780Z,101357.25
2022-09-15T19:51:21.930Z,101356.25
2022-09-15T19:53:55.271Z,101365.47
2022-09-15T19:56:27.120Z,101364.88
2022-09-15T19:58:56.860Z,101370.84
2022-09-15T20:01:26.271Z,101365.97
2022-09-15T20:06:41.757Z,101372.28
2022-09-15T20:09:14.091Z,101374.22
2022-09-15T20:11:42.286Z,101374.44
2022-09-15T20:14:10.591Z,101376.09
2022-09-15T20:16:38.683Z,101374.56
2022-09-15T20:19:07.152Z,101370.63
2022-09-15T20:21:52.994Z,101377.41
2022-09-15T20:24:23.628Z,101390.63
2022-09-15T20:26:52.140Z,101393.03
2022-09-15T20:29:21.395Z,101391.34
2022-09-15T20:31:49.756Z,101381.25
2022-09-15T20:34:18.665Z,101388.88
2022-09-15T20:36:46.757Z,101375.53
2022-09-15T20:39:16.293Z,101385.06
2022-09-15T20:41:45.975Z,101381.50
2022-09-15T20:44:14.468Z,101388.97
2022-09-15T20:46:42.803Z,101383.03
2022-09-15T20:49:11.367Z,101386.50
2022-09-15T20:51:40.194Z,101393.28
2022-09-15T20:54:08.313Z,101392.09
2022-09-15T20:56:37.406Z,101389.50
2022-09-15T20:59:10.278Z,101402.84
2022-09-15T21:01:39.799Z,101396.53
2022-09-15T21:04:09.383Z,101400.09
2022-09-15T21:06:38.173Z,101403.69
2022-09-15T21:09:07.384Z,101407.34
2022-09-15T21:11:36.019Z,101404.00
2022-09-15T21:14:05.979Z,101401.88
2022-09-15T21:16:34.948Z,101411.75
2022-09-15T21:19:03.266Z,101421.25
2022-09-15T21:21:33.811Z,101413.44
2022-09-15T21:24:04.017Z,101423.19
2022-09-15T21:26:33.712Z,101420.31
2022-09-15T21:29:02.299Z,101429.22
2022-09-15T21:31:33.694Z,101428.31
2022-09-15T21:34:01.984Z,101425.78
2022-09-15T21:36:31.941Z,101424.38
2022-09-15T21:39:02.763Z,101430.41
2022-09-15T21:41:31.028Z,101429.59
2022-09-15T21:44:01.089Z,101434.94
2022-09-15T21:46:32.120Z,101432.94
2022-09-15T21:49:00.956Z,101435.53
2022-09-15T21:51:30.893Z,101436.97
2022-09-15T21:54:00.438Z,101442.09
2022-09-15T21:56:30.237Z,101445.66
2022-09-15T21:58:58.679Z,101442.94
2022-09-15T22:01:29.252Z,101431.72
2022-09-15T22:04:00.757Z,101430.19
2022-09-15T22:06:31.942Z,101433.91
2022-09-15T22:09:38.732Z,101434.13
2022-09-15T22:12:22.277Z,101438.63
2022-09-15T22:14:50.388Z,101433.03
2022-09-15T22:17:18.371Z,101441.72
2022-09-15T22:19:47.817Z,101442.81
2022-09-15T22:22:15.874Z,101449.19
2022-09-15T22:24:44.792Z,101434.34
2022-09-15T22:27:13.289Z,101443.38
2022-09-15T22:29:41.519Z,101442.41
2022-09-15T22:32:09.578Z,101448.44
2022-09-15T22:34:37.742Z,101451.28
2022-09-15T22:37:07.398Z,101446.19
2022-09-15T22:39:58.923Z,101452.03
2022-09-15T22:42:23.992Z,101451.66
2022-09-15T22:44:52.048Z,101445.94
2022-09-15T22:47:20.259Z,101443.31
2022-09-15T22:49:48.280Z,101444.16
2022-09-15T22:52:17.847Z,101449.25
2022-09-15T22:54:45.918Z,101456.63
2022-09-15T22:57:14.139Z,101453.28
2022-09-15T22:59:42.553Z,101458.75
2022-09-15T23:02:10.657Z,101456.75
2022-09-15T23:04:38.970Z,101451.34
2022-09-15T23:07:07.211Z,101462.06
2022-09-15T23:09:36.925Z,101458.38
2022-09-15T23:12:05.366Z,101455.16
2022-09-15T23:14:33.577Z,101456.25
2022-09-15T23:17:01.682Z,101455.03
2022-09-15T23:19:29.687Z,101460.13
2022-09-15T23:21:57.830Z,101461.56
2022-09-15T23:24:25.983Z,101458.38
2022-09-15T23:26:55.547Z,101469.78
2022-09-15T23:29:26.332Z,101464.63
2022-09-15T23:31:55.141Z,101464.00
2022-09-15T23:34:23.210Z,101470.09
2022-09-15T23:36:51.283Z,101460.44
2022-09-15T23:39:19.335Z,101462.72
2022-09-15T23:41:47.493Z,101469.22
2022-09-15T23:44:16.933Z,101468.19
2022-09-15T23:46:45.058Z,101470.09
2022-09-15T23:49:17.993Z,101472.81
2022-09-15T23:51:46.901Z,101468.78
2022-09-15T23:54:15.238Z,101468.09
2022-09-15T23:56:43.402Z,101468.25
2022-09-15T23:59:11.465Z,101472.22
